sensor_id;sensor_type;location;lat;lon;timestamp;temperature;humidity
5196;DHT22;2617;51.006;12.436;2024-02-23T00:01:34;11.20;99.90
5196;DHT22;2617;51.006;12.436;2024-02-23T00:06:37;11.10;99.90
5196;DHT22;2617;51.006;12.436;2024-02-23T00:11:40;11.10;99.90
5196;DHT22;2617;51.006;12.436;2024-02-23T00:16:43;11.00;99.90
5196;DHT22;2617;51.006;12.436;2024-02-23T00:21:46;11.10;99.90
5196;DHT22;2617;51.006;12.436;2024-02-23T00:26:50;11.00;99.90
5196;DHT22;2617;51.006;12.436;2024-02-23T00:31:53;11.00;99.90
5196;DHT22;2617;51.006;12.436;2024-02-23T00:36:55;11.00;99.90
5196;DHT22;2617;51.006;12.436;2024-02-23T00:42:08;10.90;99.90
5196;DHT22;2617;51.006;12.436;2024-02-23T00:47:10;10.90;99.90
5196;DHT22;2617;51.006;12.436;2024-02-23T00:52:13;10.80;99.90
5196;DHT22;2617;51.006;12.436;2024-02-23T00:57:16;10.70;99.90
5196;DHT22;2617;51.006;12.436;2024-02-23T01:02:18;10.60;99.90
5196;DHT22;2617;51.006;12.436;2024-02-23T01:07:21;10.60;99.90
5196;DHT22;2617;51.006;12.436;2024-02-23T01:12:24;10.50;99.90
5196;DHT22;2617;51.006;12.436;2024-02-23T01:17:27;10.50;99.90
5196;DHT22;2617;51.006;12.436;2024-02-23T01:22:36;10.50;99.90
5196;DHT22;2617;51.006;12.436;2024-02-23T01:27:38;10.50;99.90
5196;DHT22;2617;51.006;12.436;2024-02-23T01:32:41;10.50;99.90
5196;DHT22;2617;51.006;12.436;2024-02-23T01:37:44;10.50;99.90
5196;DHT22;2617;51.006;12.436;2024-02-23T01:42:46;10.50;99.90
5196;DHT22;2617;51.006;12.436;2024-02-23T01:47:49;10.20;99.90
5196;DHT22;2617;51.006;12.436;2024-02-23T01:52:52;10.20;99.90
5196;DHT22;2617;51.006;12.436;2024-02-23T01:57:54;10.20;99.90
5196;DHT22;2617;51.006;12.436;2024-02-23T02:02:57;10.20;99.90
5196;DHT22;2617;51.006;12.436;2024-02-23T02:07:59;10.20;99.90
5196;DHT22;2617;51.006;12.436;2024-02-23T02:13:03;10.10;99.90
5196;DHT22;2617;51.006;12.436;2024-02-23T02:18:06;10.00;99.90
5196;DHT22;2617;51.006;12.436;2024-02-23T02:23:08;9.90;99.90
5196;DHT22;2617;51.006;12.436;2024-02-23T02:28:11;9.70;99.90
5196;DHT22;2617;51.006;12.436;2024-02-23T02:33:14;9.60;99.90
5196;DHT22;2617;51.006;12.436;2024-02-23T02:38:16;9.40;99.90
5196;DHT22;2617;51.006;12.436;2024-02-23T02:43:20;9.10;99.90
5196;DHT22;2617;51.006;12.436;2024-02-23T02:48:23;9.10;99.90
5196;DHT22;2617;51.006;12.436;2024-02-23T02:53:25;9.00;99.90
5196;DHT22;2617;51.006;12.436;2024-02-23T02:58:27;8.90;99.90
5196;DHT22;2617;51.006;12.436;2024-02-23T03:03:30;8.70;99.90
5196;DHT22;2617;51.006;12.436;2024-02-23T03:08:34;8.50;99.90
5196;DHT22;2617;51.006;12.436;2024-02-23T03:13:37;8.30;99.90
5196;DHT22;2617;51.006;12.436;2024-02-23T03:18:40;8.30;99.90
5196;DHT22;2617;51.006;12.436;2024-02-23T03:23:42;8.20;99.90
5196;DHT22;2617;51.006;12.436;2024-02-23T03:28:45;8.10;99.90
5196;DHT22;2617;51.006;12.436;2024-02-23T03:33:48;8.00;99.90
5196;DHT22;2617;51.006;12.436;2024-02-23T03:38:50;7.90;99.90
5196;DHT22;2617;51.006;12.436;2024-02-23T03:43:53;7.80;99.90
5196;DHT22;2617;51.006;12.436;2024-02-23T03:48:55;7.60;99.90
5196;DHT22;2617;51.006;12.436;2024-02-23T03:53:58;7.50;99.90
5196;DHT22;2617;51.006;12.436;2024-02-23T03:59:01;7.50;99.90
5196;DHT22;2617;51.006;12.436;2024-02-23T04:04:04;7.40;99.90
5196;DHT22;2617;51.006;12.436;2024-02-23T04:09:06;7.30;99.90
5196;DHT22;2617;51.006;12.436;2024-02-23T04:14:09;7.30;99.90
5196;DHT22;2617;51.006;12.436;2024-02-23T04:19:11;7.30;99.90
5196;DHT22;2617;51.006;12.436;2024-02-23T04:24:14;7.20;99.90
5196;DHT22;2617;51.006;12.436;2024-02-23T04:29:17;7.10;99.90
5196;DHT22;2617;51.006;12.436;2024-02-23T04:34:20;7.10;99.90
5196;DHT22;2617;51.006;12.436;2024-02-23T04:39:23;6.90;99.90
5196;DHT22;2617;51.006;12.436;2024-02-23T04:44:26;6.70;99.90
5196;DHT22;2617;51.006;12.436;2024-02-23T04:49:32;6.70;99.90
5196;DHT22;2617;51.006;12.436;2024-02-23T04:54:35;6.60;99.90
5196;DHT22;2617;51.006;12.436;2024-02-23T04:59:38;6.50;99.90
5196;DHT22;2617;51.006;12.436;2024-02-23T05:04:41;6.50;99.90
5196;DHT22;2617;51.006;12.436;2024-02-23T05:09:44;6.40;99.90
5196;DHT22;2617;51.006;12.436;2024-02-23T05:14:47;6.40;99.90
5196;DHT22;2617;51.006;12.436;2024-02-23T05:19:49;6.40;99.90
5196;DHT22;2617;51.006;12.436;2024-02-23T05:24:52;6.40;99.90
5196;DHT22;2617;51.006;12.436;2024-02-23T05:29:55;6.40;99.90
5196;DHT22;2617;51.006;12.436;2024-02-23T05:34:57;6.40;99.90
5196;DHT22;2617;51.006;12.436;2024-02-23T05:40:00;6.40;99.90
5196;DHT22;2617;51.006;12.436;2024-02-23T05:45:03;6.30;99.90
5196;DHT22;2617;51.006;12.436;2024-02-23T05:50:08;6.20;99.90
5196;DHT22;2617;51.006;12.436;2024-02-23T05:55:11;6.10;99.90
5196;DHT22;2617;51.006;12.436;2024-02-23T06:00:14;5.90;99.90
5196;DHT22;2617;51.006;12.436;2024-02-23T06:05:17;5.90;99.90
5196;DHT22;2617;51.006;12.436;2024-02-23T06:10:21;6.00;99.90
5196;DHT22;2617;51.006;12.436;2024-02-23T06:15:24;6.10;99.90
5196;DHT22;2617;51.006;12.436;2024-02-23T06:20:26;6.10;99.90
5196;DHT22;2617;51.006;12.436;2024-02-23T06:25:30;6.20;99.90
5196;DHT22;2617;51.006;12.436;2024-02-23T06:30:32;6.20;99.90
5196;DHT22;2617;51.006;12.436;2024-02-23T06:35:36;6.20;99.90
5196;DHT22;2617;51.006;12.436;2024-02-23T06:40:38;6.20;99.90
5196;DHT22;2617;51.006;12.436;2024-02-23T06:45:42;6.20;99.90
5196;DHT22;2617;51.006;12.436;2024-02-23T06:50:47;6.20;99.90
5196;DHT22;2617;51.006;12.436;2024-02-23T06:55:50;6.20;99.90
5196;DHT22;2617;51.006;12.436;2024-02-23T07:00:53;6.20;99.90
5196;DHT22;2617;51.006;12.436;2024-02-23T07:05:56;6.20;99.90
5196;DHT22;2617;51.006;12.436;2024-02-23T07:10:58;6.20;99.90
5196;DHT22;2617;51.006;12.436;2024-02-23T07:16:01;6.30;99.90
5196;DHT22;2617;51.006;12.436;2024-02-23T07:21:06;6.40;99.90
5196;DHT22;2617;51.006;12.436;2024-02-23T07:26:08;6.50;99.90
5196;DHT22;2617;51.006;12.436;2024-02-23T07:31:11;6.60;99.90
5196;DHT22;2617;51.006;12.436;2024-02-23T07:36:17;6.60;99.90
5196;DHT22;2617;51.006;12.436;2024-02-23T07:41:21;6.70;99.90
5196;DHT22;2617;51.006;12.436;2024-02-23T07:46:24;6.70;99.90
5196;DHT22;2617;51.006;12.436;2024-02-23T07:51:28;6.70;99.90
5196;DHT22;2617;51.006;12.436;2024-02-23T07:56:32;6.70;99.90
5196;DHT22;2617;51.006;12.436;2024-02-23T08:01:43;6.70;99.90
5196;DHT22;2617;51.006;12.436;2024-02-23T08:06:46;6.70;99.90
5196;DHT22;2617;51.006;12.436;2024-02-23T08:11:49;6.80;99.90
5196;DHT22;2617;51.006;12.436;2024-02-23T08:16:52;6.80;99.90
5196;DHT22;2617;51.006;12.436;2024-02-23T08:21:56;6.90;99.90
5196;DHT22;2617;51.006;12.436;2024-02-23T08:26:58;7.10;99.90
5196;DHT22;2617;51.006;12.436;2024-02-23T08:32:01;7.20;99.90
5196;DHT22;2617;51.006;12.436;2024-02-23T08:37:06;7.40;99.90
5196;DHT22;2617;51.006;12.436;2024-02-23T08:42:09;7.60;99.90
5196;DHT22;2617;51.006;12.436;2024-02-23T08:47:12;7.70;99.90
5196;DHT22;2617;51.006;12.436;2024-02-23T08:52:18;7.80;99.90
5196;DHT22;2617;51.006;12.436;2024-02-23T08:57:21;7.90;99.90
5196;DHT22;2617;51.006;12.436;2024-02-23T09:02:24;7.90;99.90
5196;DHT22;2617;51.006;12.436;2024-02-23T09:07:26;7.90;99.90
5196;DHT22;2617;51.006;12.436;2024-02-23T09:12:29;8.00;99.90
5196;DHT22;2617;51.006;12.436;2024-02-23T09:17:37;8.00;99.90
5196;DHT22;2617;51.006;12.436;2024-02-23T09:22:39;8.00;99.90
5196;DHT22;2617;51.006;12.436;2024-02-23T09:27:42;8.10;99.90
5196;DHT22;2617;51.006;12.436;2024-02-23T09:32:45;8.20;99.80
5196;DHT22;2617;51.006;12.436;2024-02-23T09:37:49;8.20;99.80
5196;DHT22;2617;51.006;12.436;2024-02-23T09:42:55;8.40;99.90
5196;DHT22;2617;51.006;12.436;2024-02-23T09:47:59;8.70;99.20
5196;DHT22;2617;51.006;12.436;2024-02-23T09:53:01;9.00;97.10
5196;DHT22;2617;51.006;12.436;2024-02-23T09:58:05;9.10;95.90
5196;DHT22;2617;51.006;12.436;2024-02-23T10:03:08;9.10;95.90
5196;DHT22;2617;51.006;12.436;2024-02-23T10:08:12;9.10;96.00
5196;DHT22;2617;51.006;12.436;2024-02-23T10:13:18;9.20;95.10
5196;DHT22;2617;51.006;12.436;2024-02-23T10:18:22;9.10;95.10
5196;DHT22;2617;51.006;12.436;2024-02-23T10:23:25;9.20;95.00
5196;DHT22;2617;51.006;12.436;2024-02-23T10:28:28;8.90;94.80
5196;DHT22;2617;51.006;12.436;2024-02-23T10:33:31;8.90;95.40
5196;DHT22;2617;51.006;12.436;2024-02-23T10:38:34;8.90;94.60
5196;DHT22;2617;51.006;12.436;2024-02-23T10:43:40;8.90;94.70
5196;DHT22;2617;51.006;12.436;2024-02-23T10:48:40;9.00;94.10
5196;DHT22;2617;51.006;12.436;2024-02-23T10:53:43;9.00;93.60
5196;DHT22;2617;51.006;12.436;2024-02-23T10:58:47;8.90;93.80
5196;DHT22;2617;51.006;12.436;2024-02-23T11:03:51;8.80;93.60
5196;DHT22;2617;51.006;12.436;2024-02-23T11:09:04;8.80;94.50
5196;DHT22;2617;51.006;12.436;2024-02-23T11:13:57;8.80;94.60
5196;DHT22;2617;51.006;12.436;2024-02-23T11:19:04;8.80;94.60
5196;DHT22;2617;51.006;12.436;2024-02-23T11:24:07;8.50;94.40
5196;DHT22;2617;51.006;12.436;2024-02-23T11:29:11;8.50;94.30
5196;DHT22;2617;51.006;12.436;2024-02-23T11:34:13;8.40;95.10
5196;DHT22;2617;51.006;12.436;2024-02-23T11:39:18;8.30;95.50
5196;DHT22;2617;51.006;12.436;2024-02-23T11:44:21;8.30;95.40
5196;DHT22;2617;51.006;12.436;2024-02-23T11:49:28;8.40;95.10
5196;DHT22;2617;51.006;12.436;2024-02-23T11:54:30;8.40;94.60
5196;DHT22;2617;51.006;12.436;2024-02-23T11:59:33;8.50;94.60
5196;DHT22;2617;51.006;12.436;2024-02-23T12:04:37;8.50;94.90
5196;DHT22;2617;51.006;12.436;2024-02-23T12:09:40;8.40;95.50
5196;DHT22;2617;51.006;12.436;2024-02-23T12:14:44;8.40;95.50
5196;DHT22;2617;51.006;12.436;2024-02-23T12:19:47;8.50;95.90
5196;DHT22;2617;51.006;12.436;2024-02-23T12:24:49;8.60;95.00
5196;DHT22;2617;51.006;12.436;2024-02-23T12:29:53;8.50;95.10
5196;DHT22;2617;51.006;12.436;2024-02-23T12:34:56;8.50;96.30
5196;DHT22;2617;51.006;12.436;2024-02-23T12:39:59;8.50;96.30
5196;DHT22;2617;51.006;12.436;2024-02-23T12:45:02;8.50;96.40
5196;DHT22;2617;51.006;12.436;2024-02-23T12:50:06;8.60;96.90
5196;DHT22;2617;51.006;12.436;2024-02-23T12:55:09;8.60;97.20
5196;DHT22;2617;51.006;12.436;2024-02-23T13:00:13;8.70;97.80
5196;DHT22;2617;51.006;12.436;2024-02-23T13:05:16;8.60;97.50
5196;DHT22;2617;51.006;12.436;2024-02-23T13:10:19;8.50;97.80
5196;DHT22;2617;51.006;12.436;2024-02-23T13:15:23;8.40;97.50
5196;DHT22;2617;51.006;12.436;2024-02-23T13:20:25;8.40;97.30
5196;DHT22;2617;51.006;12.436;2024-02-23T13:25:28;8.40;96.90
5196;DHT22;2617;51.006;12.436;2024-02-23T13:30:31;8.40;97.10
5196;DHT22;2617;51.006;12.436;2024-02-23T13:35:33;8.30;97.00
5196;DHT22;2617;51.006;12.436;2024-02-23T13:40:36;8.30;97.10
5196;DHT22;2617;51.006;12.436;2024-02-23T13:45:54;8.20;97.20
5196;DHT22;2617;51.006;12.436;2024-02-23T13:50:57;8.00;97.60
5196;DHT22;2617;51.006;12.436;2024-02-23T13:56:00;8.00;97.90
5196;DHT22;2617;51.006;12.436;2024-02-23T14:01:02;8.00;97.20
5196;DHT22;2617;51.006;12.436;2024-02-23T14:06:05;8.00;97.10
5196;DHT22;2617;51.006;12.436;2024-02-23T14:11:08;7.90;96.30
5196;DHT22;2617;51.006;12.436;2024-02-23T14:16:11;7.80;96.40
5196;DHT22;2617;51.006;12.436;2024-02-23T14:21:13;7.80;96.40
5196;DHT22;2617;51.006;12.436;2024-02-23T14:26:16;7.80;97.00
5196;DHT22;2617;51.006;12.436;2024-02-23T14:31:18;7.70;97.10
5196;DHT22;2617;51.006;12.436;2024-02-23T14:36:22;7.60;96.70
5196;DHT22;2617;51.006;12.436;2024-02-23T14:41:24;7.60;96.70
5196;DHT22;2617;51.006;12.436;2024-02-23T14:46:27;7.50;97.10
5196;DHT22;2617;51.006;12.436;2024-02-23T14:51:29;7.50;96.60
5196;DHT22;2617;51.006;12.436;2024-02-23T14:56:32;7.40;97.00
5196;DHT22;2617;51.006;12.436;2024-02-23T15:01:37;7.40;97.00
5196;DHT22;2617;51.006;12.436;2024-02-23T15:06:41;7.30;97.00
5196;DHT22;2617;51.006;12.436;2024-02-23T15:11:44;7.30;97.60
5196;DHT22;2617;51.006;12.436;2024-02-23T15:16:47;7.30;97.60
5196;DHT22;2617;51.006;12.436;2024-02-23T15:21:49;7.30;97.50
5196;DHT22;2617;51.006;12.436;2024-02-23T15:26:51;7.30;97.70
5196;DHT22;2617;51.006;12.436;2024-02-23T15:31:55;7.20;98.10
5196;DHT22;2617;51.006;12.436;2024-02-23T15:36:57;7.10;98.40
5196;DHT22;2617;51.006;12.436;2024-02-23T15:42:00;7.10;98.60
5196;DHT22;2617;51.006;12.436;2024-02-23T15:47:02;7.10;99.00
5196;DHT22;2617;51.006;12.436;2024-02-23T15:52:05;7.00;99.30
5196;DHT22;2617;51.006;12.436;2024-02-23T15:57:08;6.90;99.70
5196;DHT22;2617;51.006;12.436;2024-02-23T16:02:11;6.70;99.90
5196;DHT22;2617;51.006;12.436;2024-02-23T16:07:14;6.70;99.90
5196;DHT22;2617;51.006;12.436;2024-02-23T16:12:17;6.60;99.90
5196;DHT22;2617;51.006;12.436;2024-02-23T16:17:21;6.50;99.90
5196;DHT22;2617;51.006;12.436;2024-02-23T16:22:23;6.50;99.90
5196;DHT22;2617;51.006;12.436;2024-02-23T16:27:26;6.40;99.90
5196;DHT22;2617;51.006;12.436;2024-02-23T16:32:29;6.40;99.90
5196;DHT22;2617;51.006;12.436;2024-02-23T16:37:32;6.30;99.90
5196;DHT22;2617;51.006;12.436;2024-02-23T16:42:34;6.20;99.90
5196;DHT22;2617;51.006;12.436;2024-02-23T16:47:37;6.30;99.90
5196;DHT22;2617;51.006;12.436;2024-02-23T16:52:40;6.20;99.90
5196;DHT22;2617;51.006;12.436;2024-02-23T16:57:42;6.10;99.90
5196;DHT22;2617;51.006;12.436;2024-02-23T17:02:44;6.00;99.90
5196;DHT22;2617;51.006;12.436;2024-02-23T17:07:47;5.90;99.90
5196;DHT22;2617;51.006;12.436;2024-02-23T17:12:50;5.80;99.90
5196;DHT22;2617;51.006;12.436;2024-02-23T17:17:52;5.80;99.90
5196;DHT22;2617;51.006;12.436;2024-02-23T17:22:55;5.80;99.90
5196;DHT22;2617;51.006;12.436;2024-02-23T17:27:58;5.70;99.90
5196;DHT22;2617;51.006;12.436;2024-02-23T17:33:00;5.70;99.90
5196;DHT22;2617;51.006;12.436;2024-02-23T17:38:03;5.70;99.90
5196;DHT22;2617;51.006;12.436;2024-02-23T17:43:06;5.50;99.90
5196;DHT22;2617;51.006;12.436;2024-02-23T17:48:08;5.50;99.90
5196;DHT22;2617;51.006;12.436;2024-02-23T17:53:11;5.50;99.90
5196;DHT22;2617;51.006;12.436;2024-02-23T17:58:14;5.40;99.90
5196;DHT22;2617;51.006;12.436;2024-02-23T18:03:16;5.40;99.90
5196;DHT22;2617;51.006;12.436;2024-02-23T18:08:20;5.30;99.90
5196;DHT22;2617;51.006;12.436;2024-02-23T18:13:22;5.30;99.90
5196;DHT22;2617;51.006;12.436;2024-02-23T18:18:25;5.20;99.90
5196;DHT22;2617;51.006;12.436;2024-02-23T18:23:28;5.20;99.90
5196;DHT22;2617;51.006;12.436;2024-02-23T18:28:30;5.10;99.90
5196;DHT22;2617;51.006;12.436;2024-02-23T18:33:32;5.10;99.90
5196;DHT22;2617;51.006;12.436;2024-02-23T18:38:35;5.00;99.90
5196;DHT22;2617;51.006;12.436;2024-02-23T18:43:37;4.90;99.90
5196;DHT22;2617;51.006;12.436;2024-02-23T18:48:42;4.80;99.90
5196;DHT22;2617;51.006;12.436;2024-02-23T18:53:44;4.70;99.90
5196;DHT22;2617;51.006;12.436;2024-02-23T18:58:47;4.60;99.90
5196;DHT22;2617;51.006;12.436;2024-02-23T19:03:49;4.60;99.90
5196;DHT22;2617;51.006;12.436;2024-02-23T19:08:52;4.50;99.90
5196;DHT22;2617;51.006;12.436;2024-02-23T19:13:54;4.40;99.90
5196;DHT22;2617;51.006;12.436;2024-02-23T19:18:56;4.30;99.90
5196;DHT22;2617;51.006;12.436;2024-02-23T19:23:59;4.30;99.90
5196;DHT22;2617;51.006;12.436;2024-02-23T19:29:01;4.20;99.90
5196;DHT22;2617;51.006;12.436;2024-02-23T19:34:04;4.20;99.90
5196;DHT22;2617;51.006;12.436;2024-02-23T19:39:06;4.20;99.90
5196;DHT22;2617;51.006;12.436;2024-02-23T19:44:09;4.30;99.90
5196;DHT22;2617;51.006;12.436;2024-02-23T19:49:11;4.40;99.90
5196;DHT22;2617;51.006;12.436;2024-02-23T19:54:14;4.50;99.90
5196;DHT22;2617;51.006;12.436;2024-02-23T19:59:17;4.40;99.90
5196;DHT22;2617;51.006;12.436;2024-02-23T20:04:19;4.50;99.90
5196;DHT22;2617;51.006;12.436;2024-02-23T20:09:21;4.50;99.90
5196;DHT22;2617;51.006;12.436;2024-02-23T20:14:24;4.50;99.90
5196;DHT22;2617;51.006;12.436;2024-02-23T20:19:27;4.50;99.90
5196;DHT22;2617;51.006;12.436;2024-02-23T20:24:30;4.50;99.90
5196;DHT22;2617;51.006;12.436;2024-02-23T20:29:33;4.40;99.90
5196;DHT22;2617;51.006;12.436;2024-02-23T20:34:35;4.40;99.90
5196;DHT22;2617;51.006;12.436;2024-02-23T20:39:38;4.40;99.90
5196;DHT22;2617;51.006;12.436;2024-02-23T20:44:40;4.30;99.90
5196;DHT22;2617;51.006;12.436;2024-02-23T20:49:42;4.30;99.90
5196;DHT22;2617;51.006;12.436;2024-02-23T20:54:46;4.30;99.90
5196;DHT22;2617;51.006;12.436;2024-02-23T20:59:48;4.30;99.90
5196;DHT22;2617;51.006;12.436;2024-02-23T21:04:51;4.40;99.90
5196;DHT22;2617;51.006;12.436;2024-02-23T21:09:53;4.40;99.90
5196;DHT22;2617;51.006;12.436;2024-02-23T21:14:55;4.40;99.90
5196;DHT22;2617;51.006;12.436;2024-02-23T21:19:58;4.40;99.90
5196;DHT22;2617;51.006;12.436;2024-02-23T21:25:01;4.30;99.90
5196;DHT22;2617;51.006;12.436;2024-02-23T21:30:04;4.20;99.90
5196;DHT22;2617;51.006;12.436;2024-02-23T21:35:08;4.10;99.90
5196;DHT22;2617;51.006;12.436;2024-02-23T21:40:11;4.10;99.90
5196;DHT22;2617;51.006;12.436;2024-02-23T21:45:14;4.10;99.90
5196;DHT22;2617;51.006;12.436;2024-02-23T21:50:16;4.10;99.90
5196;DHT22;2617;51.006;12.436;2024-02-23T21:55:19;4.10;99.90
5196;DHT22;2617;51.006;12.436;2024-02-23T22:00:23;4.00;99.90
5196;DHT22;2617;51.006;12.436;2024-02-23T22:05:25;4.00;99.90
5196;DHT22;2617;51.006;12.436;2024-02-23T22:10:27;4.00;99.90
5196;DHT22;2617;51.006;12.436;2024-02-23T22:15:30;4.00;99.90
5196;DHT22;2617;51.006;12.436;2024-02-23T22:20:33;3.90;99.90
5196;DHT22;2617;51.006;12.436;2024-02-23T22:25:36;3.90;99.90
5196;DHT22;2617;51.006;12.436;2024-02-23T22:30:38;3.80;99.90
5196;DHT22;2617;51.006;12.436;2024-02-23T22:35:40;3.70;99.90
5196;DHT22;2617;51.006;12.436;2024-02-23T22:40:43;3.60;99.90
5196;DHT22;2617;51.006;12.436;2024-02-23T22:45:45;3.50;99.90
5196;DHT22;2617;51.006;12.436;2024-02-23T22:50:47;3.50;99.90
5196;DHT22;2617;51.006;12.436;2024-02-23T22:55:50;3.40;99.90
5196;DHT22;2617;51.006;12.436;2024-02-23T23:00:53;3.30;99.90
5196;DHT22;2617;51.006;12.436;2024-02-23T23:05:55;3.20;99.90
5196;DHT22;2617;51.006;12.436;2024-02-23T23:10:58;3.10;99.90
5196;DHT22;2617;51.006;12.436;2024-02-23T23:16:00;3.10;99.90
5196;DHT22;2617;51.006;12.436;2024-02-23T23:21:03;3.00;99.90
5196;DHT22;2617;51.006;12.436;2024-02-23T23:26:05;3.00;99.90
5196;DHT22;2617;51.006;12.436;2024-02-23T23:31:08;3.10;99.90
5196;DHT22;2617;51.006;12.436;2024-02-23T23:36:10;3.10;99.90
5196;DHT22;2617;51.006;12.436;2024-02-23T23:41:13;3.10;99.90
5196;DHT22;2617;51.006;12.436;2024-02-23T23:46:15;3.10;99.90
5196;DHT22;2617;51.006;12.436;2024-02-23T23:51:17;3.10;99.90
5196;DHT22;2617;51.006;12.436;2024-02-23T23:56:20;3.10;99.90
